createdAt,value
2023-05-12T00:01:20.758Z,10.57
2023-05-12T00:03:47.982Z,14.13
2023-05-12T00:06:14.861Z,10.70
2023-05-12T00:08:41.623Z,10.43
2023-05-12T00:11:09.420Z,11.35
2023-05-12T00:13:36.198Z,9.90
2023-05-12T00:16:03.772Z,11.35
2023-05-12T00:18:30.697Z,12.10
2023-05-12T00:20:57.502Z,9.68
2023-05-12T00:23:24.324Z,10.48
2023-05-12T00:25:51.099Z,10.57
2023-05-12T00:28:18.956Z,10.75
2023-05-12T00:30:45.925Z,14.82
2023-05-12T00:33:12.811Z,11.20
2023-05-12T00:35:39.533Z,10.93
2023-05-12T00:38:06.309Z,10.90
2023-05-12T00:40:33.002Z,12.65
2023-05-12T00:43:01.902Z,10.15
2023-05-12T00:45:31.987Z,10.88
2023-05-12T00:47:58.970Z,10.50
2023-05-12T00:50:26.162Z,10.30
2023-05-12T00:52:53.204Z,10.10
2023-05-12T00:55:20.056Z,14.02
2023-05-12T00:57:46.721Z,12.70
2023-05-12T01:00:14.056Z,13.30
2023-05-12T01:02:41.298Z,12.27
2023-05-12T01:05:09.981Z,13.05
2023-05-12T01:10:17.279Z,12.45
2023-05-12T01:12:44.028Z,11.50
2023-05-12T01:15:11.340Z,11.63
2023-05-12T01:17:40.200Z,15.52
2023-05-12T01:20:08.276Z,13.77
2023-05-12T01:22:37.622Z,11.43
2023-05-12T01:25:07.784Z,12.25
2023-05-12T01:27:36.458Z,12.50
2023-05-12T01:30:05.159Z,10.45
2023-05-12T01:32:32.053Z,10.57
2023-05-12T01:34:58.835Z,12.05
2023-05-12T01:37:29.194Z,12.07
2023-05-12T01:39:55.892Z,9.85
2023-05-12T01:42:22.648Z,11.07
2023-05-12T01:44:49.368Z,10.80
2023-05-12T01:47:16.275Z,12.20
2023-05-12T01:49:43.176Z,11.80
2023-05-12T01:52:09.983Z,11.68
2023-05-12T01:54:36.917Z,13.40
2023-05-12T01:57:04.003Z,11.88
2023-05-12T01:59:30.791Z,12.90
2023-05-12T02:01:57.554Z,8.95
2023-05-12T02:04:24.321Z,8.93
2023-05-12T02:06:51.981Z,9.88
2023-05-12T02:09:18.779Z,12.35
2023-05-12T02:11:45.480Z,8.57
2023-05-12T02:14:12.274Z,10.07
2023-05-12T02:16:39.047Z,8.73
2023-05-12T02:19:05.873Z,10.05
2023-05-12T02:21:33.054Z,9.00
2023-05-12T02:23:59.823Z,8.20
2023-05-12T02:26:26.588Z,8.35
2023-05-12T02:28:53.306Z,9.15
2023-05-12T02:31:20.082Z,8.07
2023-05-12T02:33:46.820Z,8.20
2023-05-12T02:36:13.616Z,8.32
2023-05-12T02:38:40.473Z,9.70
2023-05-12T02:41:07.676Z,9.80
2023-05-12T02:43:34.400Z,9.00
2023-05-12T02:46:01.372Z,9.38
2023-05-12T02:48:28.207Z,9.00
2023-05-12T02:50:54.896Z,8.70
2023-05-12T02:53:21.798Z,7.97
2023-05-12T02:55:48.848Z,7.75
2023-05-12T02:58:15.739Z,8.77
2023-05-12T03:00:42.588Z,8.07
2023-05-12T03:03:09.561Z,9.57
2023-05-12T03:05:36.442Z,9.85
2023-05-12T03:08:03.253Z,9.27
2023-05-12T03:10:31.088Z,11.23
2023-05-12T03:12:57.812Z,8.27
2023-05-12T03:15:24.514Z,8.40
2023-05-12T03:17:51.234Z,10.18
2023-05-12T03:20:18.449Z,9.98
2023-05-12T03:22:45.496Z,9.60
2023-05-12T03:25:12.870Z,8.95
2023-05-12T03:27:39.923Z,10.93
2023-05-12T03:30:07.283Z,9.63
2023-05-12T03:32:39.347Z,8.77
2023-05-12T03:35:07.393Z,8.15
2023-05-12T03:37:34.106Z,12.60
2023-05-12T03:40:01.004Z,9.15
2023-05-12T03:42:28.748Z,9.00
2023-05-12T03:44:55.537Z,10.70
2023-05-12T03:47:22.403Z,10.25
2023-05-12T03:49:49.223Z,9.70
2023-05-12T03:52:15.986Z,10.50
2023-05-12T03:54:42.745Z,10.45
2023-05-12T03:57:09.485Z,13.82
2023-05-12T03:59:36.362Z,10.07
2023-05-12T04:02:03.129Z,11.48
2023-05-12T04:04:29.854Z,10.48
2023-05-12T04:06:56.752Z,12.68
2023-05-12T04:09:23.479Z,13.73
2023-05-12T04:11:50.204Z,10.50
2023-05-12T04:14:16.891Z,10.30
2023-05-12T04:16:43.599Z,11.57
2023-05-12T04:19:10.387Z,8.82
2023-05-12T04:21:37.128Z,9.85
2023-05-12T04:24:04.132Z,12.10
2023-05-12T04:26:30.853Z,8.73
2023-05-12T04:28:57.610Z,10.88
2023-05-12T04:31:24.345Z,10.10
2023-05-12T04:33:52.118Z,10.77
2023-05-12T04:36:18.864Z,9.55
2023-05-12T04:38:45.967Z,9.35
2023-05-12T04:41:12.689Z,9.70
2023-05-12T04:46:09.140Z,11.65
2023-05-12T04:48:35.951Z,11.05
2023-05-12T04:51:02.703Z,9.48
2023-05-12T04:53:32.275Z,9.80
2023-05-12T04:55:58.991Z,10.25
2023-05-12T04:58:25.801Z,12.60
2023-05-12T05:00:53.217Z,10.20
2023-05-12T05:03:20.205Z,9.90
2023-05-12T05:05:47.153Z,11.02
2023-05-12T05:08:13.816Z,10.30
2023-05-12T05:10:40.626Z,13.02
2023-05-12T05:13:07.348Z,12.65
2023-05-12T05:15:34.092Z,11.02
2023-05-12T05:18:01.916Z,11.02
2023-05-12T05:20:29.396Z,10.40
2023-05-12T05:22:56.351Z,11.45
2023-05-12T05:25:23.075Z,11.43
2023-05-12T05:27:50.039Z,10.05
2023-05-12T05:30:16.964Z,10.75
2023-05-12T05:32:44.074Z,9.35
2023-05-12T05:35:10.792Z,9.32
2023-05-12T05:37:37.527Z,10.70
2023-05-12T05:40:05.090Z,9.65
2023-05-12T05:42:31.842Z,8.45
2023-05-12T05:44:58.649Z,8.52
2023-05-12T05:47:25.467Z,8.20
2023-05-12T05:49:52.304Z,8.07
2023-05-12T05:52:19.102Z,9.13
2023-05-12T05:54:45.855Z,11.70
2023-05-12T05:57:12.907Z,8.48
2023-05-12T05:59:39.649Z,10.98
2023-05-12T06:02:06.844Z,8.27
2023-05-12T06:04:33.623Z,10.30
2023-05-12T06:07:00.313Z,11.15
2023-05-12T06:09:27.038Z,9.02
2023-05-12T06:11:53.777Z,10.57
2023-05-12T06:14:20.530Z,8.10
2023-05-12T06:16:47.298Z,9.23
2023-05-12T06:19:14.312Z,10.15
2023-05-12T06:21:41.323Z,7.45
2023-05-12T06:24:08.127Z,8.73
2023-05-12T06:26:34.910Z,7.05
2023-05-12T06:29:01.615Z,8.77
2023-05-12T06:31:28.353Z,8.75
2023-05-12T06:33:55.156Z,9.27
2023-05-12T06:36:22.771Z,7.65
2023-05-12T06:38:51.048Z,7.25
2023-05-12T06:41:18.099Z,8.05
2023-05-12T06:43:45.335Z,8.85
2023-05-12T06:46:12.485Z,8.70
2023-05-12T06:48:39.400Z,5.75
2023-05-12T06:51:06.672Z,5.45
2023-05-12T06:53:37.596Z,5.43
2023-05-12T06:56:05.408Z,5.80
2023-05-12T06:58:32.272Z,5.10
2023-05-12T07:00:59.101Z,4.60
2023-05-12T07:03:26.015Z,6.70
2023-05-12T07:05:52.866Z,5.85
2023-05-12T07:08:19.666Z,5.70
2023-05-12T07:10:46.430Z,5.20
2023-05-12T07:13:13.145Z,6.05
2023-05-12T07:15:39.878Z,5.13
2023-05-12T07:18:06.903Z,4.45
2023-05-12T07:20:33.871Z,2.80
2023-05-12T07:23:00.709Z,2.25
2023-05-12T07:25:28.271Z,2.80
2023-05-12T07:27:55.059Z,2.65
2023-05-12T07:30:22.729Z,2.53
2023-05-12T07:32:49.489Z,5.93
2023-05-12T07:35:16.219Z,3.25
2023-05-12T07:37:42.974Z,2.40
2023-05-12T07:40:10.126Z,1.88
2023-05-12T07:42:36.949Z,2.45
2023-05-12T07:45:04.125Z,1.75
2023-05-12T07:47:31.002Z,2.97
2023-05-12T07:49:58.067Z,2.03
2023-05-12T07:52:24.931Z,2.72
2023-05-12T07:54:51.764Z,2.90
2023-05-12T07:57:20.814Z,2.53
2023-05-12T07:59:47.658Z,2.95
2023-05-12T08:02:14.523Z,2.72
2023-05-12T08:04:43.233Z,2.50
2023-05-12T08:07:11.518Z,2.40
2023-05-12T08:09:38.586Z,3.45
2023-05-12T08:12:09.092Z,1.88
2023-05-12T08:14:36.150Z,1.17
2023-05-12T08:17:03.164Z,1.63
2023-05-12T08:19:30.070Z,1.10
2023-05-12T08:21:57.051Z,0.90
2023-05-12T08:24:23.859Z,1.00
2023-05-12T08:26:50.589Z,1.38
2023-05-12T08:29:17.349Z,2.70
2023-05-12T08:31:44.259Z,1.30
2023-05-12T08:34:11.443Z,1.00
2023-05-12T08:36:39.814Z,0.70
2023-05-12T08:39:07.887Z,0.60
2023-05-12T08:41:56.498Z,0.73
2023-05-12T08:44:27.218Z,0.60
2023-05-12T08:46:57.448Z,0.57
2023-05-12T08:49:26.761Z,0.73
2023-05-12T08:51:58.325Z,0.68
2023-05-12T08:54:27.849Z,0.50
2023-05-12T08:59:25.605Z,0.68
2023-05-12T09:01:57.626Z,1.13
2023-05-12T09:04:24.625Z,1.15
2023-05-12T09:06:54.308Z,1.20
2023-05-12T09:09:23.262Z,2.00
2023-05-12T09:11:53.257Z,3.13
2023-05-12T09:14:25.640Z,0.73
2023-05-12T09:16:59.949Z,1.85
2023-05-12T09:19:26.837Z,0.70
2023-05-12T09:21:53.651Z,1.25
2023-05-12T09:24:21.094Z,0.95
2023-05-12T09:26:50.140Z,1.02
2023-05-12T09:29:27.680Z,0.82
2023-05-12T09:31:59.480Z,3.33
2023-05-12T09:34:37.120Z,0.85
2023-05-12T09:37:05.503Z,1.40
2023-05-12T09:39:33.293Z,0.95
2023-05-12T09:42:01.081Z,0.30
2023-05-12T09:44:29.407Z,1.55
2023-05-12T09:46:56.368Z,0.73
2023-05-12T09:49:28.086Z,0.75
2023-05-12T09:51:59.101Z,1.20
2023-05-12T09:54:31.056Z,1.95
2023-05-12T09:57:00.767Z,0.40
2023-05-12T09:59:31.567Z,0.80
2023-05-12T10:02:02.878Z,2.10
2023-05-12T10:04:39.404Z,1.63
2023-05-12T10:07:10.119Z,2.03
2023-05-12T10:09:39.403Z,0.40
2023-05-12T10:12:06.513Z,0.77
2023-05-12T10:14:34.346Z,0.95
2023-05-12T10:17:02.059Z,1.25
2023-05-12T10:19:32.730Z,1.33
2023-05-12T10:22:01.524Z,0.85
2023-05-12T10:24:28.572Z,0.93
2023-05-12T10:26:56.794Z,1.00
2023-05-12T10:29:30.312Z,0.85
2023-05-12T10:31:57.851Z,1.30
2023-05-12T10:34:39.812Z,1.10
2023-05-12T10:37:10.829Z,1.20
2023-05-12T10:39:46.979Z,0.70
2023-05-12T10:42:17.488Z,0.38
2023-05-12T10:44:54.867Z,0.50
2023-05-12T10:47:27.086Z,0.98
2023-05-12T10:49:58.818Z,1.30
2023-05-12T10:52:25.961Z,1.08
2023-05-12T10:55:04.207Z,0.63
2023-05-12T10:57:33.281Z,0.93
2023-05-12T11:00:02.313Z,0.57
2023-05-12T11:02:34.764Z,1.25
2023-05-12T11:05:10.729Z,1.17
2023-05-12T11:10:06.083Z,0.70
2023-05-12T11:12:38.279Z,1.85
2023-05-12T11:15:06.759Z,0.75
2023-05-12T11:17:34.081Z,1.42
2023-05-12T11:20:01.630Z,0.90
2023-05-12T11:22:28.701Z,3.28
2023-05-12T11:24:55.741Z,0.50
2023-05-12T11:27:23.821Z,0.82
2023-05-12T11:29:59.039Z,0.82
2023-05-12T11:32:26.107Z,0.50
2023-05-12T11:34:53.176Z,0.75
2023-05-12T11:37:21.422Z,0.50
2023-05-12T11:39:48.727Z,0.40
2023-05-12T11:42:18.591Z,0.50
2023-05-12T11:44:48.138Z,0.55
2023-05-12T11:47:16.101Z,0.40
2023-05-12T11:49:55.812Z,0.75
2023-05-12T11:52:24.336Z,1.20
2023-05-12T11:54:53.126Z,0.38
2023-05-12T11:57:54.958Z,1.25
2023-05-12T12:00:36.249Z,0.20
2023-05-12T12:03:14.268Z,0.30
2023-05-12T12:05:43.147Z,0.50
2023-05-12T12:08:16.542Z,0.90
2023-05-12T12:10:47.160Z,1.30
2023-05-12T12:13:20.627Z,0.20
2023-05-12T12:15:48.188Z,0.95
2023-05-12T12:18:16.722Z,0.47
2023-05-12T12:20:44.284Z,0.32
2023-05-12T12:23:11.472Z,1.02
2023-05-12T12:25:38.233Z,0.68
2023-05-12T12:28:05.228Z,0.40
2023-05-12T12:30:32.144Z,0.40
2023-05-12T12:32:58.939Z,1.95
2023-05-12T12:35:25.808Z,0.75
2023-05-12T12:37:52.611Z,0.90
2023-05-12T12:40:20.324Z,0.43
2023-05-12T12:42:47.252Z,1.27
2023-05-12T12:45:14.082Z,0.88
2023-05-12T12:47:40.877Z,0.93
2023-05-12T12:50:10.031Z,0.55
2023-05-12T12:52:38.375Z,0.93
2023-05-12T12:55:06.420Z,0.65
2023-05-12T12:57:33.208Z,0.47
2023-05-12T13:00:00.070Z,0.93
2023-05-12T13:02:27.247Z,1.17
2023-05-12T13:04:54.445Z,0.73
2023-05-12T13:07:21.909Z,0.43
2023-05-12T13:09:48.674Z,0.98
2023-05-12T13:12:15.429Z,0.70
2023-05-12T13:14:42.317Z,0.63
2023-05-12T13:17:09.120Z,0.88
2023-05-12T13:19:37.901Z,2.85
2023-05-12T13:22:05.597Z,1.30
2023-05-12T13:24:33.002Z,0.90
2023-05-12T13:26:59.854Z,0.60
2023-05-12T13:29:26.888Z,2.05
2023-05-12T13:31:54.434Z,0.63
2023-05-12T13:34:21.523Z,0.88
2023-05-12T13:36:48.601Z,0.65
2023-05-12T13:39:16.063Z,0.90
2023-05-12T13:41:43.692Z,0.82
2023-05-12T13:44:10.564Z,10.35
2023-05-12T13:46:37.307Z,0.63
2023-05-12T13:49:04.719Z,2.30
2023-05-12T13:51:32.401Z,0.50
2023-05-12T13:53:59.328Z,0.65
2023-05-12T13:56:26.109Z,1.00
2023-05-12T13:58:52.831Z,1.10
2023-05-12T14:01:19.913Z,0.75
2023-05-12T14:03:46.709Z,0.88
2023-05-12T14:06:13.453Z,1.73
2023-05-12T14:08:41.612Z,2.50
2023-05-12T14:11:08.673Z,0.77
2023-05-12T14:13:35.834Z,1.15
2023-05-12T14:16:02.907Z,0.90
2023-05-12T14:18:30.159Z,1.20
2023-05-12T14:20:57.434Z,1.27
2023-05-12T14:23:24.131Z,1.65
2023-05-12T14:25:51.457Z,2.47
2023-05-12T14:28:18.275Z,1.85
2023-05-12T14:30:45.345Z,2.33
2023-05-12T14:33:12.367Z,1.90
2023-05-12T14:35:39.097Z,2.30
2023-05-12T14:38:05.918Z,2.75
2023-05-12T14:40:32.760Z,1.85
2023-05-12T14:43:00.231Z,2.28
2023-05-12T14:45:27.193Z,2.47
2023-05-12T14:47:54.833Z,2.10
2023-05-12T14:50:22.463Z,1.50
2023-05-12T14:52:49.648Z,1.73
2023-05-12T14:55:17.405Z,3.10
2023-05-12T14:57:44.641Z,1.80
2023-05-12T15:00:13.453Z,2.30
2023-05-12T15:02:41.874Z,2.65
2023-05-12T15:05:10.453Z,2.65
2023-05-12T15:07:37.249Z,2.78
2023-05-12T15:10:04.809Z,1.88
2023-05-12T15:12:32.411Z,1.40
2023-05-12T15:15:04.624Z,1.38
2023-05-12T15:17:31.872Z,1.60
2023-05-12T15:19:59.358Z,1.70
2023-05-12T15:22:26.976Z,2.70
2023-05-12T15:24:53.705Z,1.50
2023-05-12T15:27:20.409Z,3.25
2023-05-12T15:29:47.544Z,1.50
2023-05-12T15:32:26.689Z,1.50
2023-05-12T15:34:55.984Z,1.90
2023-05-12T15:37:25.482Z,1.60
2023-05-12T15:39:52.308Z,2.80
2023-05-12T15:42:26.121Z,1.63
2023-05-12T15:44:59.508Z,2.58
2023-05-12T15:47:34.879Z,2.38
2023-05-12T15:50:03.389Z,2.15
2023-05-12T15:52:30.706Z,3.47
2023-05-12T15:55:25.883Z,1.10
2023-05-12T16:00:31.225Z,1.23
2023-05-12T16:02:58.241Z,2.85
2023-05-12T16:05:29.032Z,1.73
2023-05-12T16:07:55.879Z,1.25
2023-05-12T16:10:23.373Z,1.38
2023-05-12T16:12:50.373Z,2.17
2023-05-12T16:15:18.701Z,4.20
2023-05-12T16:17:45.619Z,2.50
2023-05-12T16:20:12.873Z,4.88
2023-05-12T16:22:39.793Z,3.47
2023-05-12T16:25:07.083Z,2.17
2023-05-12T16:27:35.660Z,3.88
2023-05-12T16:30:03.809Z,2.92
2023-05-12T16:32:32.068Z,2.20
2023-05-12T16:34:59.059Z,3.85
2023-05-12T16:37:26.648Z,2.78
2023-05-12T16:39:54.221Z,3.10
2023-05-12T16:42:21.042Z,3.63
2023-05-12T16:44:48.083Z,3.15
2023-05-12T16:47:15.092Z,5.80
2023-05-12T16:49:41.991Z,3.00
2023-05-12T16:52:09.901Z,3.17
2023-05-12T16:54:38.210Z,2.60
2023-05-12T16:57:05.118Z,3.85
2023-05-12T16:59:32.596Z,2.78
2023-05-12T17:02:00.051Z,2.58
2023-05-12T17:04:27.280Z,3.42
2023-05-12T17:06:54.834Z,3.58
2023-05-12T17:09:23.134Z,3.67
2023-05-12T17:11:50.227Z,2.95
2023-05-12T17:14:19.003Z,3.85
2023-05-12T17:16:46.653Z,4.75
2023-05-12T17:19:14.067Z,4.07
2023-05-12T17:21:41.556Z,3.72
2023-05-12T17:24:09.148Z,5.75
2023-05-12T17:26:36.253Z,4.32
2023-05-12T17:29:03.196Z,3.75
2023-05-12T17:31:30.066Z,3.72
2023-05-12T17:33:56.925Z,4.57
2023-05-12T17:36:23.800Z,4.28
2023-05-12T17:38:51.823Z,4.35
2023-05-12T17:41:19.504Z,5.25
2023-05-12T17:43:46.369Z,4.35
2023-05-12T17:46:13.241Z,5.20
2023-05-12T17:48:40.148Z,5.15
2023-05-12T17:51:07.420Z,4.47
2023-05-12T17:53:35.420Z,6.40
2023-05-12T17:56:02.238Z,7.35
2023-05-12T17:58:29.280Z,7.10
2023-05-12T18:00:56.214Z,5.85
2023-05-12T18:03:25.787Z,6.57
2023-05-12T18:05:54.331Z,6.25
2023-05-12T18:08:21.769Z,6.93
2023-05-12T18:10:48.744Z,6.97
2023-05-12T18:13:16.151Z,6.45
2023-05-12T18:15:43.073Z,8.30
2023-05-12T18:18:10.726Z,8.95
2023-05-12T18:20:37.582Z,8.68
2023-05-12T18:23:04.531Z,7.25
2023-05-12T18:25:31.339Z,7.88
2023-05-12T18:27:58.137Z,6.95
2023-05-12T18:30:24.855Z,7.60
2023-05-12T18:32:51.843Z,6.70
2023-05-12T18:35:18.997Z,7.97
2023-05-12T18:37:46.001Z,10.30
2023-05-12T18:40:12.918Z,8.55
2023-05-12T18:42:39.652Z,9.68
2023-05-12T18:45:07.104Z,8.63
2023-05-12T18:47:34.423Z,9.85
2023-05-12T18:50:01.400Z,8.27
2023-05-12T18:52:28.162Z,9.05
2023-05-12T18:54:54.834Z,8.07
2023-05-12T18:57:21.705Z,7.00
2023-05-12T18:59:48.472Z,7.03
2023-05-12T19:02:15.210Z,7.00
2023-05-12T19:04:42.198Z,9.00
2023-05-12T19:07:15.335Z,7.70
2023-05-12T19:09:43.227Z,9.80
2023-05-12T19:12:11.921Z,6.60
2023-05-12T19:14:40.027Z,7.47
2023-05-12T19:17:07.505Z,8.70
2023-05-12T19:19:34.761Z,9.10
2023-05-12T19:22:01.616Z,7.13
2023-05-12T19:24:29.611Z,7.03
2023-05-12T19:26:57.333Z,10.23
2023-05-12T19:29:24.072Z,9.35
2023-05-12T19:31:52.904Z,6.18
2023-05-12T19:34:19.863Z,6.72
2023-05-12T19:36:46.756Z,9.10
2023-05-12T19:39:13.474Z,6.22
2023-05-12T19:41:41.120Z,6.28
2023-05-12T19:44:07.876Z,7.45
2023-05-12T19:46:34.592Z,5.82
2023-05-12T19:49:02.294Z,5.75
2023-05-12T19:51:29.198Z,6.07
2023-05-12T19:53:55.918Z,5.50
2023-05-12T19:56:22.656Z,6.85
2023-05-12T19:58:49.879Z,9.50
2023-05-12T20:01:16.647Z,6.40
2023-05-12T20:03:43.620Z,5.63
2023-05-12T20:06:11.114Z,6.00
2023-05-12T20:08:38.021Z,5.22
2023-05-12T20:11:04.710Z,5.43
2023-05-12T20:13:31.964Z,6.10
2023-05-12T20:15:58.883Z,6.07
2023-05-12T20:18:25.980Z,5.45
2023-05-12T20:20:52.790Z,6.45
2023-05-12T20:23:19.477Z,5.47
2023-05-12T20:25:46.738Z,5.65
2023-05-12T20:28:14.087Z,6.78
2023-05-12T20:30:41.076Z,6.10
2023-05-12T20:33:07.891Z,7.25
2023-05-12T20:35:34.844Z,5.65
2023-05-12T20:38:01.625Z,6.47
2023-05-12T20:40:28.418Z,9.07
2023-05-12T20:42:55.507Z,7.00
2023-05-12T20:45:22.549Z,7.15
2023-05-12T20:47:49.525Z,8.23
2023-05-12T20:50:17.059Z,6.65
2023-05-12T20:52:46.142Z,8.18
2023-05-12T20:55:13.002Z,5.93
2023-05-12T20:57:40.292Z,8.30
2023-05-12T21:00:10.603Z,5.97
2023-05-12T21:02:38.068Z,6.65
2023-05-12T21:05:05.311Z,6.97
2023-05-12T21:07:32.294Z,9.15
2023-05-12T21:10:00.305Z,6.25
2023-05-12T21:12:27.822Z,6.57
2023-05-12T21:14:54.702Z,7.03
2023-05-12T21:17:21.886Z,6.22
2023-05-12T21:19:48.694Z,6.28
2023-05-12T21:22:15.886Z,6.70
2023-05-12T21:24:42.930Z,6.50
2023-05-12T21:27:10.044Z,6.38
2023-05-12T21:29:36.874Z,5.78
2023-05-12T21:32:03.883Z,7.05
2023-05-12T21:34:33.440Z,6.50
2023-05-12T21:37:00.369Z,9.48
2023-05-12T21:39:27.862Z,6.30
2023-05-12T21:41:54.619Z,7.45
2023-05-12T21:44:21.344Z,5.90
2023-05-12T21:46:48.137Z,6.53
2023-05-12T21:49:14.956Z,6.85
2023-05-12T21:51:42.000Z,7.22
2023-05-12T21:54:09.012Z,6.80
2023-05-12T21:56:35.758Z,5.90
2023-05-12T21:59:02.475Z,6.00
2023-05-12T22:01:30.032Z,6.53
2023-05-12T22:04:00.060Z,6.28
2023-05-12T22:06:26.921Z,5.63
2023-05-12T22:08:54.245Z,6.35
2023-05-12T22:11:21.715Z,7.57
2023-05-12T22:13:48.741Z,6.30
2023-05-12T22:16:15.855Z,7.28
2023-05-12T22:18:45.702Z,6.22
2023-05-12T22:21:13.056Z,6.22
2023-05-12T22:23:41.774Z,9.10
2023-05-12T22:26:09.158Z,6.63
2023-05-12T22:28:36.230Z,8.70
2023-05-12T22:31:03.232Z,8.38
2023-05-12T22:33:30.075Z,9.05
2023-05-12T22:35:59.487Z,7.15
2023-05-12T22:38:27.181Z,6.80
2023-05-12T22:40:54.244Z,7.97
2023-05-12T22:43:21.089Z,8.00
2023-05-12T22:45:56.009Z,8.52
2023-05-12T22:48:22.897Z,6.53
2023-05-12T22:50:49.574Z,6.18
2023-05-12T22:53:16.277Z,7.45
2023-05-12T22:55:42.992Z,7.47
2023-05-12T22:58:11.619Z,7.65
2023-05-12T23:00:38.438Z,7.88
2023-05-12T23:03:05.321Z,7.65
2023-05-12T23:05:32.049Z,7.80
2023-05-12T23:07:59.902Z,7.35
2023-05-12T23:10:26.828Z,8.00
2023-05-12T23:12:53.528Z,9.38
2023-05-12T23:15:20.341Z,7.40
2023-05-12T23:17:47.097Z,6.88
2023-05-12T23:20:13.977Z,7.88
2023-05-12T23:22:40.739Z,9.68
2023-05-12T23:25:08.113Z,9.50
2023-05-12T23:27:36.148Z,7.82
2023-05-12T23:30:03.428Z,9.60
2023-05-12T23:32:32.474Z,8.98
2023-05-12T23:34:59.258Z,7.95
2023-05-12T23:37:25.985Z,9.10
2023-05-12T23:39:52.693Z,9.60
2023-05-12T23:42:19.445Z,7.53
2023-05-12T23:44:46.112Z,8.27
2023-05-12T23:47:12.822Z,10.32
2023-05-12T23:49:39.512Z,9.07
2023-05-12T23:52:06.715Z,9.15
2023-05-12T23:54:33.416Z,9.70
2023-05-12T23:57:00.116Z,8.82
2023-05-12T23:59:26.989Z,7.93
